Time;durP1;ratioP1;P1;durP2;ratioP2;P2;SDS_P1;SDS_P2;PMS_P1;PMS_P2;Temp;Humidity;BMP_temperature;BMP_pressure;BME280_temperature;BME280_humidity;BME280_pressure;Samples;Min_cycle;Max_cycle;Signal;HPM_P1;HPM_P2
2022/11/07 00:02:20;;;;;;;38.55;27.00;;;;;;;;;;5137026;27;20542;-84
2022/11/07 00:04:46;;;;;;;37.10;26.48;;;;;;;;;;5119017;27;20027;-86
2022/11/07 00:07:12;;;;;;;37.50;26.58;;;;;;;;;;5137184;27;20016;-87
2022/11/07 00:09:39;;;;;;;40.17;27.85;;;;;;;;;;5118658;27;20043;-84
2022/11/07 00:12:05;;;;;;;37.60;25.90;;;;;;;;;;5118740;27;20020;-86
2022/11/07 00:14:31;;;;;;;40.10;26.48;;;;;;;;;;5118261;27;20458;-84
2022/11/07 00:16:57;;;;;;;39.80;27.67;;;;;;;;;;5137120;27;20027;-85
2022/11/07 00:19:23;;;;;;;35.92;26.48;;;;;;;;;;5136881;27;20050;-88
2022/11/07 00:21:49;;;;;;;37.88;27.90;;;;;;;;;;5136970;27;20382;-85
2022/11/07 00:24:19;;;;;;;36.28;26.45;;;;;;;;;;5118418;27;20046;-84
2022/11/07 00:26:45;;;;;;;36.17;26.17;;;;;;;;;;5136832;27;20023;-87
2022/11/07 00:29:16;;;;;;;38.92;27.17;;;;;;;;;;5118297;27;20030;-87
2022/11/07 00:31:42;;;;;;;37.40;28.23;;;;;;;;;;5136682;27;20042;-86
2022/11/07 00:34:08;;;;;;;36.58;26.73;;;;;;;;;;5136671;27;20031;-85
2022/11/07 00:36:34;;;;;;;39.40;29.17;;;;;;;;;;5118208;27;20538;-85
2022/11/07 00:39:00;;;;;;;47.33;29.67;;;;;;;;;;5136752;27;20023;-85
2022/11/07 00:41:27;;;;;;;40.20;27.77;;;;;;;;;;5118446;27;20023;-89
2022/11/07 00:43:53;;;;;;;41.80;27.80;;;;;;;;;;5136558;27;20011;-84
2022/11/07 00:46:19;;;;;;;41.83;29.05;;;;;;;;;;5136458;27;20034;-83
2022/11/07 00:48:45;;;;;;;38.88;28.42;;;;;;;;;;5136394;27;20027;-85
2022/11/07 00:51:14;;;;;;;41.88;29.25;;;;;;;;;;5136426;27;20031;-83
2022/11/07 00:53:40;;;;;;;44.10;29.05;;;;;;;;;;5135948;27;20045;-85
2022/11/07 00:56:07;;;;;;;36.55;26.77;;;;;;;;;;5136108;27;20058;-86
2022/11/07 00:58:34;;;;;;;38.00;25.70;;;;;;;;;;5136041;27;20355;-83
2022/11/07 01:01:06;;;;;;;35.05;25.27;;;;;;;;;;5117877;27;20030;-84
2022/11/07 01:06:16;;;;;;;36.70;26.15;;;;;;;;;;5135907;27;20030;-84
2022/11/07 01:08:43;;;;;;;40.20;25.88;;;;;;;;;;5135974;27;20478;-86
2022/11/07 01:11:09;;;;;;;39.05;27.58;;;;;;;;;;5135910;27;20023;-86
2022/11/07 01:13:35;;;;;;;38.75;27.10;;;;;;;;;;5117524;27;20019;-87
2022/11/07 01:16:01;;;;;;;38.22;26.17;;;;;;;;;;5117480;27;20031;-87
2022/11/07 01:18:27;;;;;;;38.05;26.48;;;;;;;;;;5135674;27;20027;-84
2022/11/07 01:20:53;;;;;;;40.13;29.75;;;;;;;;;;5135829;27;20514;-87
2022/11/07 01:23:21;;;;;;;37.25;26.17;;;;;;;;;;5135609;27;20031;-84
2022/11/07 01:25:47;;;;;;;37.25;27.52;;;;;;;;;;5135683;27;20529;-86
2022/11/07 01:28:13;;;;;;;39.75;26.60;;;;;;;;;;5135663;27;20027;-84
2022/11/07 01:30:40;;;;;;;38.78;27.33;;;;;;;;;;5135477;27;20054;-85
2022/11/07 01:33:07;;;;;;;38.08;26.50;;;;;;;;;;5135677;27;20052;-85
2022/11/07 01:35:34;;;;;;;36.63;26.75;;;;;;;;;;5135252;27;20031;-87
2022/11/07 01:38:00;;;;;;;35.75;26.13;;;;;;;;;;5135636;27;20488;-88
2022/11/07 01:40:26;;;;;;;37.72;27.48;;;;;;;;;;5135367;27;20023;-86
2022/11/07 01:42:53;;;;;;;38.72;26.85;;;;;;;;;;5117312;27;20089;-87
2022/11/07 01:45:22;;;;;;;40.30;26.70;;;;;;;;;;5135246;27;20019;-87
2022/11/07 01:47:49;;;;;;;38.78;26.80;;;;;;;;;;5117014;27;20457;-87
2022/11/07 01:50:15;;;;;;;35.72;25.98;;;;;;;;;;5135401;27;20031;-85
2022/11/07 01:52:42;;;;;;;38.22;26.17;;;;;;;;;;5135137;27;20027;-84
2022/11/07 01:55:15;;;;;;;38.60;27.48;;;;;;;;;;5135174;27;20095;-86
2022/11/07 01:57:44;;;;;;;39.17;26.33;;;;;;;;;;5135024;27;20055;-86
2022/11/07 02:00:12;;;;;;;38.50;27.45;;;;;;;;;;5135052;27;20031;-87
2022/11/07 02:02:38;;;;;;;36.92;26.95;;;;;;;;;;5135012;27;20023;-84
2022/11/07 02:05:06;;;;;;;40.42;26.23;;;;;;;;;;5134699;27;20019;-84
2022/11/07 02:07:32;;;;;;;42.88;29.35;;;;;;;;;;5116016;27;20019;-84
2022/11/07 02:09:59;;;;;;;38.22;27.55;;;;;;;;;;5116497;27;20382;-84
2022/11/07 02:12:27;;;;;;;38.28;26.38;;;;;;;;;;5134635;27;20090;-83
2022/11/07 02:14:54;;;;;;;39.60;27.52;;;;;;;;;;5134630;27;20027;-86
2022/11/07 02:17:20;;;;;;;40.88;27.27;;;;;;;;;;5134404;27;20019;-86
2022/11/07 02:19:48;;;;;;;39.28;28.85;;;;;;;;;;5134603;27;20026;-85
2022/11/07 02:22:22;;;;;;;45.40;30.92;;;;;;;;;;5134529;27;20019;-86
2022/11/07 02:24:50;;;;;;;39.90;27.65;;;;;;;;;;5134576;27;20549;-84
2022/11/07 02:27:18;;;;;;;39.83;28.38;;;;;;;;;;5134268;27;20080;-84
2022/11/07 02:29:46;;;;;;;38.35;24.73;;;;;;;;;;5134540;27;20019;-86
2022/11/07 02:32:12;;;;;;;36.75;26.42;;;;;;;;;;5134200;27;20023;-85
2022/11/07 02:34:38;;;;;;;33.60;25.52;;;;;;;;;;5134374;27;20482;-84
2022/11/07 02:37:09;;;;;;;35.95;24.75;;;;;;;;;;5134150;27;20027;-86
2022/11/07 02:39:35;;;;;;;37.83;25.48;;;;;;;;;;5134289;27;20470;-83
2022/11/07 02:42:02;;;;;;;41.50;27.65;;;;;;;;;;5134217;27;20061;-85
2022/11/07 02:44:29;;;;;;;36.35;25.42;;;;;;;;;;5115674;27;20025;-85
2022/11/07 02:46:56;;;;;;;38.92;26.30;;;;;;;;;;5134078;27;20027;-88
2022/11/07 02:49:22;;;;;;;42.10;27.63;;;;;;;;;;5133691;27;20029;-87
2022/11/07 02:51:48;;;;;;;41.25;27.08;;;;;;;;;;5134086;27;20467;-84
2022/11/07 02:54:14;;;;;;;40.90;29.27;;;;;;;;;;5133702;27;20029;-87
2022/11/07 02:56:40;;;;;;;43.40;29.13;;;;;;;;;;5133824;27;20058;-84
2022/11/07 02:59:06;;;;;;;43.60;27.85;;;;;;;;;;5133990;27;20356;-87
2022/11/07 03:01:32;;;;;;;45.13;28.52;;;;;;;;;;5133789;27;20023;-87
2022/11/07 03:03:58;;;;;;;46.00;28.20;;;;;;;;;;5134030;27;20020;-83
2022/11/07 03:06:25;;;;;;;45.17;29.88;;;;;;;;;;5133739;27;20056;-86
2022/11/07 03:08:51;;;;;;;44.83;28.15;;;;;;;;;;5115603;27;20488;-88
2022/11/07 03:11:18;;;;;;;44.88;27.77;;;;;;;;;;5133613;27;20369;-84
2022/11/07 03:13:45;;;;;;;45.85;28.60;;;;;;;;;;5133737;27;20094;-86
2022/11/07 03:16:11;;;;;;;44.00;27.80;;;;;;;;;;5133672;27;20363;-85
2022/11/07 03:18:37;;;;;;;46.63;29.70;;;;;;;;;;5133569;27;20023;-84
2022/11/07 03:21:04;;;;;;;46.67;27.42;;;;;;;;;;5115267;27;20058;-85
2022/11/07 03:23:30;;;;;;;41.95;25.58;;;;;;;;;;5115077;28;20019;-91
2022/11/07 03:25:56;;;;;;;40.47;25.38;;;;;;;;;;5133688;28;20031;-86
2022/11/07 03:28:23;;;;;;;51.25;28.23;;;;;;;;;;5133516;28;20030;-84
2022/11/07 03:30:49;;;;;;;44.67;27.88;;;;;;;;;;5115244;28;20023;-83
2022/11/07 03:33:16;;;;;;;42.97;25.63;;;;;;;;;;5133537;28;20076;-84
2022/11/07 03:35:42;;;;;;;43.20;26.65;;;;;;;;;;5133277;28;20030;-84
2022/11/07 03:38:08;;;;;;;42.83;27.25;;;;;;;;;;5133461;28;20051;-84
2022/11/07 03:40:35;;;;;;;39.75;25.45;;;;;;;;;;5114970;28;20159;-86
2022/11/07 03:43:01;;;;;;;42.35;25.60;;;;;;;;;;5115243;28;20026;-90
2022/11/07 03:45:27;;;;;;;37.05;22.77;;;;;;;;;;5133363;28;20049;-84
2022/11/07 03:47:53;;;;;;;44.22;27.23;;;;;;;;;;5133751;28;20420;-88
2022/11/07 03:50:20;;;;;;;45.40;26.67;;;;;;;;;;5115652;28;20035;-88
2022/11/07 03:52:47;;;;;;;42.03;27.92;;;;;;;;;;5116152;28;20121;-87
2022/11/07 03:55:17;;;;;;;40.88;25.67;;;;;;;;;;5115159;28;20027;-83
2022/11/07 03:57:43;;;;;;;40.80;25.33;;;;;;;;;;5115317;28;20054;-91
2022/11/07 04:00:10;;;;;;;39.67;25.13;;;;;;;;;;5115253;28;20035;-87
2022/11/07 04:02:36;;;;;;;38.47;24.60;;;;;;;;;;5133679;28;20020;-88
2022/11/07 04:05:02;;;;;;;42.30;26.15;;;;;;;;;;5133390;28;20027;-83
2022/11/07 04:07:28;;;;;;;41.33;24.73;;;;;;;;;;5114859;28;20110;-84
2022/11/07 04:09:54;;;;;;;37.67;24.13;;;;;;;;;;5133275;28;20026;-85
2022/11/07 04:18:09;;;;;;;35.10;23.27;;;;;;;;;;5070116;28;20029;-84
2022/11/07 04:20:36;;;;;;;35.15;23.88;;;;;;;;;;5069994;28;20241;-84
2022/11/07 04:23:02;;;;;;;35.10;22.75;;;;;;;;;;5081903;28;20501;-89
2022/11/07 04:28:15;;;;;;;32.47;21.52;;;;;;;;;;5133524;27;20038;-84
2022/11/07 04:30:41;;;;;;;37.13;24.13;;;;;;;;;;5136466;27;20019;-88
2022/11/07 04:33:07;;;;;;;33.88;22.73;;;;;;;;;;5137060;27;20463;-87
2022/11/07 04:35:33;;;;;;;29.92;20.50;;;;;;;;;;5136460;27;20051;-85
2022/11/07 04:38:00;;;;;;;34.00;22.05;;;;;;;;;;5136926;27;20031;-85
2022/11/07 04:40:27;;;;;;;30.27;21.70;;;;;;;;;;5136814;27;20019;-85
2022/11/07 04:42:53;;;;;;;32.65;21.67;;;;;;;;;;5136621;27;20087;-85
2022/11/07 04:45:19;;;;;;;34.83;22.38;;;;;;;;;;5136704;27;20393;-85
2022/11/07 04:47:45;;;;;;;36.22;22.77;;;;;;;;;;5136495;27;20023;-85
2022/11/07 04:50:12;;;;;;;36.25;23.38;;;;;;;;;;5118144;27;20113;-87
2022/11/07 04:52:38;;;;;;;34.92;22.20;;;;;;;;;;5117858;27;20517;-85
2022/11/07 04:55:06;;;;;;;32.60;21.17;;;;;;;;;;5136365;27;20027;-87
2022/11/07 04:57:32;;;;;;;33.47;22.77;;;;;;;;;;5135784;27;20047;-88
2022/11/07 04:59:59;;;;;;;32.08;23.48;;;;;;;;;;5117828;27;20463;-87
2022/11/07 05:02:25;;;;;;;33.92;22.95;;;;;;;;;;5117908;27;20023;-86
2022/11/07 05:04:52;;;;;;;29.70;20.55;;;;;;;;;;5135893;27;20123;-87
2022/11/07 05:07:18;;;;;;;30.35;22.15;;;;;;;;;;5136150;27;20030;-87
2022/11/07 05:09:44;;;;;;;33.78;23.45;;;;;;;;;;5117501;27;20034;-85
2022/11/07 05:12:10;;;;;;;32.10;21.80;;;;;;;;;;5136118;27;20086;-86
2022/11/07 05:14:37;;;;;;;30.60;21.88;;;;;;;;;;5135884;27;20020;-86
2022/11/07 05:17:03;;;;;;;31.10;23.27;;;;;;;;;;5117546;27;20027;-84
2022/11/07 05:19:29;;;;;;;30.80;21.95;;;;;;;;;;5135911;27;20098;-85
2022/11/07 05:25:00;;;;;;;33.77;23.90;;;;;;;;;;5135728;27;20084;-88
2022/11/07 05:27:26;;;;;;;30.23;22.05;;;;;;;;;;5100095;27;20470;-88
2022/11/07 05:29:52;;;;;;;30.33;22.08;;;;;;;;;;5100417;27;20028;-88
2022/11/07 05:32:19;;;;;;;33.10;23.75;;;;;;;;;;5116924;27;20023;-86
2022/11/07 05:34:45;;;;;;;34.38;24.35;;;;;;;;;;5117155;27;20078;-87
2022/11/07 05:37:12;;;;;;;30.27;22.77;;;;;;;;;;5117394;27;20023;-88
2022/11/07 05:39:38;;;;;;;30.55;22.17;;;;;;;;;;5098936;27;20030;-88
2022/11/07 05:42:04;;;;;;;35.25;24.70;;;;;;;;;;5116181;27;20027;-88
2022/11/07 05:44:31;;;;;;;31.20;22.27;;;;;;;;;;5116877;27;20030;-88
2022/11/07 05:46:58;;;;;;;33.03;23.02;;;;;;;;;;5100194;27;20055;-86
2022/11/07 05:49:25;;;;;;;35.38;23.23;;;;;;;;;;5100193;27;20130;-87
2022/11/07 05:51:51;;;;;;;38.38;25.20;;;;;;;;;;5116712;27;20031;-88
2022/11/07 05:54:17;;;;;;;49.20;30.15;;;;;;;;;;5099655;27;20031;-87
2022/11/07 05:56:43;;;;;;;39.90;27.30;;;;;;;;;;5116486;27;20043;-88
2022/11/07 05:59:11;;;;;;;37.58;26.17;;;;;;;;;;5117000;27;20035;-88
2022/11/07 06:01:37;;;;;;;40.95;27.60;;;;;;;;;;5116428;27;20481;-89
2022/11/07 06:04:04;;;;;;;41.90;29.63;;;;;;;;;;5099780;27;20027;-87
2022/11/07 06:06:30;;;;;;;43.55;31.83;;;;;;;;;;5116431;27;20039;-87
2022/11/07 06:08:56;;;;;;;38.35;27.05;;;;;;;;;;5099822;27;20505;-87
2022/11/07 06:11:23;;;;;;;35.55;24.73;;;;;;;;;;5116252;27;20046;-87
2022/11/07 06:13:49;;;;;;;40.88;28.55;;;;;;;;;;5116703;27;20494;-88
2022/11/07 06:16:15;;;;;;;35.20;24.17;;;;;;;;;;5116697;27;20050;-86
2022/11/07 06:18:41;;;;;;;34.40;24.50;;;;;;;;;;5116287;27;20015;-89
2022/11/07 06:21:07;;;;;;;33.70;23.65;;;;;;;;;;5115721;27;20023;-85
2022/11/07 06:23:33;;;;;;;34.85;23.52;;;;;;;;;;5115545;27;20113;-83
2022/11/07 06:25:59;;;;;;;39.05;27.70;;;;;;;;;;5128089;27;20023;-85
2022/11/07 06:28:25;;;;;;;46.03;33.47;;;;;;;;;;5132133;27;20133;-87
2022/11/07 06:30:52;;;;;;;52.95;36.90;;;;;;;;;;5116267;27;20064;-90
2022/11/07 06:33:18;;;;;;;43.03;31.42;;;;;;;;;;5114318;27;20015;-87
2022/11/07 06:35:45;;;;;;;38.10;26.88;;;;;;;;;;5133262;27;20592;-81
2022/11/07 06:38:20;;;;;;;27.85;20.85;;;;;;;;;;5134314;27;20054;-90
2022/11/07 06:40:46;;;;;;;35.08;23.73;;;;;;;;;;5116751;27;20057;-87
2022/11/07 06:43:16;;;;;;;28.25;19.95;;;;;;;;;;5115173;27;20022;-83
2022/11/07 06:45:43;;;;;;;31.20;21.52;;;;;;;;;;5113290;27;20435;-84
2022/11/07 06:48:15;;;;;;;36.67;24.17;;;;;;;;;;5114820;27;20035;-89
2022/11/07 06:50:44;;;;;;;36.97;24.15;;;;;;;;;;5112646;27;20031;-87
2022/11/07 06:53:11;;;;;;;35.88;24.98;;;;;;;;;;5125855;27;20530;-89
2022/11/07 06:55:37;;;;;;;35.38;25.33;;;;;;;;;;5133744;27;20501;-89
2022/11/07 06:58:13;;;;;;;38.83;24.67;;;;;;;;;;5122106;27;20500;-92
2022/11/07 07:00:41;;;;;;;31.90;22.20;;;;;;;;;;5115634;27;20019;-88
2022/11/07 07:03:07;;;;;;;30.80;21.35;;;;;;;;;;5114927;27;20474;-89
2022/11/07 07:05:36;;;;;;;32.97;23.33;;;;;;;;;;5109743;27;20027;-90
2022/11/07 07:08:06;;;;;;;33.75;26.13;;;;;;;;;;5116305;27;20038;-90
2022/11/07 07:10:37;;;;;;;54.03;46.90;;;;;;;;;;5086954;27;20023;-89
2022/11/07 07:13:03;;;;;;;29.60;21.92;;;;;;;;;;5117723;27;20034;-91
2022/11/07 07:15:35;;;;;;;33.22;24.02;;;;;;;;;;5114419;27;20031;-87
2022/11/07 07:18:01;;;;;;;111.07;40.53;;;;;;;;;;5113459;27;20026;-87
2022/11/07 07:20:28;;;;;;;146.68;49.95;;;;;;;;;;5132273;27;20015;-87
2022/11/07 07:22:54;;;;;;;291.45;85.03;;;;;;;;;;5127646;27;20465;-88
2022/11/07 07:25:20;;;;;;;214.77;63.92;;;;;;;;;;5115283;27;20027;-86
2022/11/07 07:27:47;;;;;;;152.13;50.78;;;;;;;;;;5113984;28;20027;-88
2022/11/07 07:30:13;;;;;;;86.60;33.55;;;;;;;;;;5096755;28;20130;-87
2022/11/07 07:32:39;;;;;;;89.97;34.10;;;;;;;;;;5113787;28;20493;-88
2022/11/07 07:35:06;;;;;;;70.60;29.08;;;;;;;;;;5131536;27;20096;-85
2022/11/07 07:37:37;;;;;;;29.65;21.15;;;;;;;;;;5114371;28;20023;-89
2022/11/07 07:40:04;;;;;;;25.55;19.50;;;;;;;;;;5130485;28;20023;-88
2022/11/07 07:42:51;;;;;;;64.35;28.08;;;;;;;;;;5098040;28;20030;-88
2022/11/07 07:45:17;;;;;;;63.83;31.85;;;;;;;;;;5114107;28;20023;-83
2022/11/07 07:47:43;;;;;;;72.43;31.58;;;;;;;;;;5132790;28;20027;-87
2022/11/07 07:50:10;;;;;;;61.50;32.42;;;;;;;;;;5107350;28;20035;-82
2022/11/07 07:52:36;;;;;;;74.57;36.17;;;;;;;;;;5120992;28;20466;-84
2022/11/07 07:55:03;;;;;;;61.47;34.45;;;;;;;;;;5116542;28;20031;-87
2022/11/07 07:57:32;;;;;;;58.42;34.92;;;;;;;;;;5110129;28;20103;-87
2022/11/07 08:00:16;;;;;;;54.97;34.05;;;;;;;;;;5092065;28;20024;-85
2022/11/07 08:02:42;;;;;;;33.25;22.85;;;;;;;;;;5109420;28;20035;-85
2022/11/07 08:05:11;;;;;;;32.55;23.60;;;;;;;;;;5110103;28;20092;-88
2022/11/07 08:07:48;;;;;;;31.55;22.17;;;;;;;;;;5108749;28;20463;-81
2022/11/07 08:10:14;;;;;;;29.02;21.88;;;;;;;;;;5105975;28;20031;-85
2022/11/07 08:12:44;;;;;;;30.00;21.20;;;;;;;;;;5107190;28;20019;-86
2022/11/07 08:15:11;;;;;;;28.88;20.50;;;;;;;;;;5101754;27;20423;-86
2022/11/07 08:17:37;;;;;;;41.67;23.45;;;;;;;;;;5110946;27;20367;-89
2022/11/07 08:20:03;;;;;;;30.27;22.00;;;;;;;;;;5106964;27;20047;-89
2022/11/07 08:22:29;;;;;;;28.00;21.95;;;;;;;;;;5107828;28;20016;-86
2022/11/07 08:24:55;;;;;;;31.67;22.25;;;;;;;;;;5116918;27;20489;-84
2022/11/07 08:27:30;;;;;;;29.13;21.00;;;;;;;;;;5098565;28;20027;-89
2022/11/07 08:29:56;;;;;;;28.52;21.00;;;;;;;;;;5093684;28;20093;-88
2022/11/07 08:32:29;;;;;;;28.45;21.98;;;;;;;;;;5102243;28;20026;-92
2022/11/07 08:35:00;;;;;;;39.58;25.17;;;;;;;;;;5111620;28;20376;-91
2022/11/07 08:37:26;;;;;;;29.98;22.30;;;;;;;;;;5109157;28;20042;-86
2022/11/07 08:40:00;;;;;;;31.00;22.85;;;;;;;;;;5112081;28;20100;-90
2022/11/07 08:42:26;;;;;;;31.42;22.40;;;;;;;;;;5090867;28;20051;-90
2022/11/07 08:44:55;;;;;;;29.55;22.33;;;;;;;;;;5105802;28;20035;-84
2022/11/07 08:47:21;;;;;;;31.05;22.75;;;;;;;;;;5089096;28;20032;-87
2022/11/07 08:49:47;;;;;;;29.17;21.98;;;;;;;;;;5106850;28;20090;-87
2022/11/07 08:52:15;;;;;;;28.67;21.20;;;;;;;;;;5113101;27;20411;-77
2022/11/07 08:55:04;;;;;;;29.38;21.05;;;;;;;;;;5101813;28;20416;-90
2022/11/07 08:57:35;;;;;;;27.40;20.45;;;;;;;;;;5099043;28;20031;-89
2022/11/07 09:00:05;;;;;;;29.35;21.70;;;;;;;;;;5076884;28;20035;-89
2022/11/07 09:02:34;;;;;;;31.35;21.48;;;;;;;;;;5100371;28;20038;-91
2022/11/07 09:05:00;;;;;;;27.83;20.42;;;;;;;;;;5114429;28;20036;-91
2022/11/07 09:07:26;;;;;;;32.63;21.60;;;;;;;;;;5113033;28;20855;-88
2022/11/07 09:09:53;;;;;;;28.48;20.17;;;;;;;;;;5113416;28;20035;-88
2022/11/07 09:12:25;;;;;;;181.35;66.13;;;;;;;;;;5110807;28;20028;-85
2022/11/07 09:14:51;;;;;;;139.27;48.63;;;;;;;;;;5113984;28;20027;-84
2022/11/07 09:17:17;;;;;;;111.45;46.25;;;;;;;;;;5111315;28;20020;-83
2022/11/07 09:19:43;;;;;;;133.25;52.28;;;;;;;;;;5110591;28;20023;-82
2022/11/07 09:22:09;;;;;;;134.63;50.88;;;;;;;;;;5114504;27;20025;-83
2022/11/07 09:24:36;;;;;;;103.03;43.03;;;;;;;;;;5124743;27;20109;-85
2022/11/07 09:27:02;;;;;;;112.53;44.00;;;;;;;;;;5109466;28;20078;-84
2022/11/07 09:29:28;;;;;;;81.47;36.88;;;;;;;;;;5111710;28;20030;-84
2022/11/07 09:31:54;;;;;;;90.15;37.97;;;;;;;;;;5107226;27;20443;-83
2022/11/07 09:34:20;;;;;;;80.43;36.70;;;;;;;;;;5107662;27;20050;-83
2022/11/07 09:36:46;;;;;;;72.90;34.05;;;;;;;;;;5112028;28;20031;-83
2022/11/07 09:39:12;;;;;;;54.28;30.33;;;;;;;;;;5112275;28;21076;-84
2022/11/07 09:41:38;;;;;;;63.05;29.63;;;;;;;;;;5110593;28;20054;-82
2022/11/07 09:44:08;;;;;;;102.53;41.92;;;;;;;;;;5105974;27;20433;-85
2022/11/07 09:46:37;;;;;;;113.57;44.58;;;;;;;;;;5109806;28;20124;-87
2022/11/07 09:49:03;;;;;;;26.90;18.90;;;;;;;;;;5108929;28;20097;-86
2022/11/07 09:51:52;;;;;;;25.45;18.55;;;;;;;;;;5115625;27;20027;-83
2022/11/07 09:54:20;;;;;;;29.23;19.90;;;;;;;;;;5132381;27;20019;-85
2022/11/07 09:56:46;;;;;;;57.08;25.88;;;;;;;;;;5132443;27;20133;-86
2022/11/07 09:59:32;;;;;;;42.03;24.08;;;;;;;;;;5135948;27;20019;-87
2022/11/07 10:05:03;;;;;;;37.85;20.83;;;;;;;;;;5126260;27;20156;-85
2022/11/07 10:07:32;;;;;;;41.95;22.80;;;;;;;;;;5114278;27;20075;-84
2022/11/07 10:10:05;;;;;;;38.67;22.73;;;;;;;;;;5133600;27;20026;-83
2022/11/07 10:12:50;;;;;;;36.35;23.02;;;;;;;;;;5130455;27;20011;-86
2022/11/07 10:15:16;;;;;;;;;;;;;;;;;;5133752;27;20145;-82
2022/11/07 10:17:45;;;;;;;33.60;21.92;;;;;;;;;;5126331;27;19919;-84
2022/11/07 10:20:30;;;;;;;28.58;22.55;;;;;;;;;;5125898;27;20107;-87
2022/11/07 10:22:56;;;;;;;;;;;;;;;;;;5123900;27;20078;-86
2022/11/07 10:25:22;;;;;;;22.13;18.23;;;;;;;;;;5125472;27;19912;-86
2022/11/07 10:28:07;;;;;;;25.10;20.00;;;;;;;;;;5126779;27;20394;-84
2022/11/07 10:30:34;;;;;;;24.00;19.40;;;;;;;;;;5113367;27;20027;-84
2022/11/07 10:33:07;;;;;;;20.55;17.70;;;;;;;;;;5113521;27;20058;-85
2022/11/07 10:35:34;;;;;;;22.50;19.25;;;;;;;;;;5113816;27;20049;-84
2022/11/07 10:38:03;;;;;;;25.35;18.92;;;;;;;;;;5128861;27;20389;-84
2022/11/07 10:40:48;;;;;;;23.30;18.85;;;;;;;;;;5129893;27;20029;-87
2022/11/07 10:43:17;;;;;;;23.83;18.92;;;;;;;;;;5131697;27;20379;-87
2022/11/07 10:45:43;;;;;;;25.50;21.38;;;;;;;;;;5113846;27;20114;-87
2022/11/07 10:48:13;;;;;;;26.17;21.92;;;;;;;;;;5130875;27;20041;-88
2022/11/07 10:50:39;;;;;;;24.42;20.20;;;;;;;;;;5097222;27;20035;-87
2022/11/07 10:53:08;;;;;;;22.95;18.52;;;;;;;;;;5114522;27;20023;-74
2022/11/07 10:55:52;;;;;;;27.48;19.55;;;;;;;;;;5131467;27;20027;-77
2022/11/07 10:58:32;;;;;;;22.70;18.27;;;;;;;;;;5132635;27;20057;-89
2022/11/07 11:01:04;;;;;;;23.35;18.30;;;;;;;;;;5112313;27;20787;-87
2022/11/07 11:06:23;;;;;;;21.20;17.90;;;;;;;;;;5131106;27;20547;-85
2022/11/07 11:08:51;;;;;;;22.83;17.52;;;;;;;;;;5100549;27;20171;-86
2022/11/07 11:11:36;;;;;;;24.77;20.92;;;;;;;;;;5117564;27;20106;-87
2022/11/07 11:14:06;;;;;;;21.38;18.73;;;;;;;;;;5121747;27;20085;-88
2022/11/07 11:16:34;;;;;;;60.90;49.10;;;;;;;;;;5111171;28;20102;-88
2022/11/07 11:19:01;;;;;;;23.35;19.25;;;;;;;;;;5127778;27;20466;-88
2022/11/07 11:21:38;;;;;;;25.63;20.25;;;;;;;;;;5110555;28;20032;-87
2022/11/07 11:24:12;;;;;;;28.98;21.98;;;;;;;;;;5110520;27;20111;-84
2022/11/07 11:26:39;;;;;;;23.13;19.63;;;;;;;;;;5130037;27;20027;-85
2022/11/07 11:29:08;;;;;;;29.60;20.65;;;;;;;;;;5113458;27;20023;-88
2022/11/07 11:31:45;;;;;;;26.05;22.17;;;;;;;;;;5131973;27;20065;-83
2022/11/07 11:34:18;;;;;;;27.10;21.35;;;;;;;;;;5131451;28;20025;-88
2022/11/07 11:36:51;;;;;;;25.42;21.45;;;;;;;;;;5111695;28;20092;-86
2022/11/07 11:39:37;;;;;;;24.13;20.07;;;;;;;;;;5128661;27;20090;-86
2022/11/07 11:42:04;;;;;;;24.75;19.42;;;;;;;;;;5132871;27;20019;-86
2022/11/07 11:44:39;;;;;;;24.35;20.98;;;;;;;;;;5117017;27;20027;-83
2022/11/07 11:47:25;;;;;;;24.90;20.23;;;;;;;;;;5126919;27;20485;-85
2022/11/07 11:49:54;;;;;;;27.42;22.77;;;;;;;;;;5133121;27;20066;-87
2022/11/07 11:52:24;;;;;;;24.65;20.20;;;;;;;;;;5134324;27;20054;-81
2022/11/07 11:54:51;;;;;;;22.42;19.88;;;;;;;;;;5133316;27;20019;-85
2022/11/07 11:57:22;;;;;;;22.65;19.30;;;;;;;;;;5120571;27;20070;-85
2022/11/07 11:59:53;;;;;;;28.05;20.85;;;;;;;;;;5134810;27;20099;-85
2022/11/07 12:02:31;;;;;;;22.85;19.20;;;;;;;;;;5130118;27;20032;-90
2022/11/07 12:05:12;;;;;;;23.50;19.23;;;;;;;;;;5116540;27;20491;-86
2022/11/07 12:07:57;;;;;;;25.40;20.50;;;;;;;;;;5112669;27;20077;-86
2022/11/07 12:10:29;;;;;;;31.40;22.58;;;;;;;;;;5130249;27;20126;-86
2022/11/07 12:13:11;;;;;;;30.23;23.60;;;;;;;;;;5113721;27;20092;-84
2022/11/07 12:15:37;;;;;;;28.95;21.27;;;;;;;;;;5132670;27;20034;-85
2022/11/07 12:18:09;;;;;;;32.72;24.65;;;;;;;;;;5111559;27;20031;-85
2022/11/07 12:20:44;;;;;;;26.17;22.30;;;;;;;;;;5112699;27;20042;-84
2022/11/07 12:23:29;;;;;;;30.67;22.02;;;;;;;;;;5134736;27;20068;-85
2022/11/07 12:26:11;;;;;;;44.28;24.67;;;;;;;;;;5114113;27;20033;-84
2022/11/07 12:28:56;;;;;;;28.73;23.17;;;;;;;;;;5125725;27;20062;-84
2022/11/07 12:31:34;;;;;;;26.10;21.60;;;;;;;;;;5125394;27;20050;-85
2022/11/07 12:34:09;;;;;;;25.23;20.65;;;;;;;;;;5128890;27;20066;-84
2022/11/07 12:36:51;;;;;;;70.07;35.10;;;;;;;;;;5109538;27;20103;-82
2022/11/07 12:39:29;;;;;;;126.68;47.95;;;;;;;;;;5129248;27;20520;-83
2022/11/07 12:42:14;;;;;;;114.40;45.35;;;;;;;;;;5133010;27;20015;-81
2022/11/07 12:44:43;;;;;;;113.93;44.13;;;;;;;;;;5129394;27;20033;-88
2022/11/07 12:47:15;;;;;;;37.97;24.20;;;;;;;;;;5115521;27;20102;-85
2022/11/07 12:50:00;;;;;;;70.53;35.00;;;;;;;;;;5128037;27;20023;-87
2022/11/07 12:52:26;;;;;;;28.85;22.55;;;;;;;;;;5129610;27;20382;-84
2022/11/07 12:55:00;;;;;;;26.50;21.98;;;;;;;;;;5133121;27;20023;-86
2022/11/07 12:57:32;;;;;;;23.83;20.38;;;;;;;;;;5112188;27;20093;-86
2022/11/07 13:00:01;;;;;;;23.02;20.55;;;;;;;;;;5110427;27;20059;-87
2022/11/07 13:02:36;;;;;;;24.42;19.05;;;;;;;;;;5120797;27;20036;-86
2022/11/07 13:05:05;;;;;;;23.85;19.83;;;;;;;;;;5134858;27;20102;-88
2022/11/07 13:07:37;;;;;;;33.25;21.80;;;;;;;;;;5135341;27;20019;-84
2022/11/07 13:10:08;;;;;;;28.02;21.40;;;;;;;;;;5133221;27;20118;-86
2022/11/07 13:12:44;;;;;;;37.67;25.85;;;;;;;;;;5116823;27;20024;-84
2022/11/07 13:15:12;;;;;;;34.03;24.60;;;;;;;;;;5070403;28;20028;-88
2022/11/07 13:17:40;;;;;;;25.02;21.70;;;;;;;;;;5050884;28;20476;-87
2022/11/07 13:20:06;;;;;;;25.50;20.95;;;;;;;;;;5052058;28;20036;-84
2022/11/07 13:22:32;;;;;;;32.30;22.67;;;;;;;;;;5055285;28;20067;-85
2022/11/07 13:25:01;;;;;;;30.80;20.73;;;;;;;;;;5049062;28;20542;-84
2022/11/07 13:27:32;;;;;;;31.83;24.27;;;;;;;;;;5049820;28;20040;-86
2022/11/07 13:30:09;;;;;;;25.98;19.58;;;;;;;;;;5049344;28;20033;-84
2022/11/07 13:32:38;;;;;;;36.90;24.73;;;;;;;;;;5065636;28;20071;-85
2022/11/07 13:35:09;;;;;;;41.10;25.77;;;;;;;;;;5066917;28;20037;-87
2022/11/07 13:37:37;;;;;;;23.83;18.92;;;;;;;;;;5065431;28;20060;-85
2022/11/07 13:40:27;;;;;;;26.67;19.50;;;;;;;;;;5106206;27;20088;-85
2022/11/07 13:42:58;;;;;;;29.98;20.77;;;;;;;;;;5097888;27;20039;-87
2022/11/07 13:45:26;;;;;;;23.15;19.60;;;;;;;;;;5112198;27;20019;-86
2022/11/07 13:47:54;;;;;;;24.75;20.23;;;;;;;;;;5111913;27;20031;-87
2022/11/07 13:50:30;;;;;;;27.23;20.05;;;;;;;;;;5111237;27;20159;-84
2022/11/07 13:53:02;;;;;;;28.08;19.92;;;;;;;;;;5111315;27;20032;-82
2022/11/07 13:55:54;;;;;;;22.83;19.35;;;;;;;;;;5126173;27;20026;-82
2022/11/07 13:58:21;;;;;;;28.92;23.10;;;;;;;;;;5113760;27;20047;-85
2022/11/07 14:00:47;;;;;;;203.43;70.50;;;;;;;;;;5127844;27;20031;-85
2022/11/07 14:03:23;;;;;;;169.88;69.93;;;;;;;;;;5112453;27;20035;-81
2022/11/07 14:05:50;;;;;;;135.10;58.72;;;;;;;;;;5128590;27;20031;-81
2022/11/07 14:08:27;;;;;;;78.15;36.92;;;;;;;;;;5131069;27;20375;-79
2022/11/07 14:10:54;;;;;;;133.38;55.05;;;;;;;;;;5094846;27;20023;-80
2022/11/07 14:13:26;;;;;;;59.55;32.22;;;;;;;;;;5126756;27;20027;-82
2022/11/07 14:15:59;;;;;;;44.63;27.08;;;;;;;;;;5139861;27;20028;-82
2022/11/07 14:18:28;;;;;;;56.50;32.42;;;;;;;;;;5133360;27;20046;-88
2022/11/07 14:20:55;;;;;;;28.23;22.65;;;;;;;;;;5133682;27;20021;-88
2022/11/07 14:23:37;;;;;;;34.08;27.70;;;;;;;;;;5112331;27;20390;-88
2022/11/07 14:26:27;;;;;;;29.10;25.30;;;;;;;;;;5112038;27;20034;-89
2022/11/07 14:28:55;;;;;;;35.40;26.42;;;;;;;;;;5099266;27;20035;-83
2022/11/07 14:31:40;;;;;;;35.70;24.85;;;;;;;;;;5130546;27;20031;-85
2022/11/07 14:34:13;;;;;;;36.55;25.50;;;;;;;;;;5130742;27;20023;-85
2022/11/07 14:36:58;;;;;;;39.63;25.15;;;;;;;;;;5110287;27;20038;-83
2022/11/07 14:39:25;;;;;;;29.30;24.35;;;;;;;;;;5110214;27;20439;-84
2022/11/07 14:41:52;;;;;;;35.10;24.90;;;;;;;;;;5128596;27;20066;-84
2022/11/07 14:44:36;;;;;;;34.15;24.17;;;;;;;;;;5138753;27;20094;-85
2022/11/07 14:47:03;;;;;;;50.38;28.38;;;;;;;;;;5128750;27;20058;-84
2022/11/07 14:49:36;;;;;;;30.58;23.70;;;;;;;;;;5092312;28;20458;-85